Terminal Aerodrome Forecast
Issued by NWS

Home | Current Version | Previous Version | Text Only | Print | Product List | Glossary On
Versions: 1 2 3 4 5 6 7 8 9 10 11 12 13 14 15 16 17 18 19 20 21 22 23 24 25 26 27 28 29 30 31 32 33 34 35 36 37 38
000
FTUS44 KHGX 170521
TAFSGR
TAF
KSGR 170521Z 1706/1806 VRB10KT P6SM -RA VCTS SCT011 BKN018 OVC030CB
      TEMPO 1706/1710 VRB10G30KT 2SM TSRA BKN025CB
     FM171000 11007KT P6SM VCTS BKN015CB
      TEMPO 1710/1712 4SM SHRA BKN010 OVC040
     FM171600 VRB05KT P6SM BKN025 BKN050
     FM171900 11006KT P6SM VCSH SCT035 BKN100
     FM172100 16007KT P6SM VCTS SCT040CB
     FM180200 17005KT P6SM SCT030=

USA.gov is the U.S. government's official web portal to all federal, state and local government web resources and services.